Time;durP1;ratioP1;P1;durP2;ratioP2;P2;SDS_P1;SDS_P2;PMS_P1;PMS_P2;Temp;Humidity;BMP_temperature;BMP_pressure;BME280_temperature;BME280_humidity;BME280_pressure;Samples;Min_cycle;Max_cycle;Signal;HPM_P1;HPM_P2
2021/05/25 00:01:40;;;;;;;1.50;0.80;;;9.30;99.90;;;;;;5097006;28;20240;-65
2021/05/25 00:04:07;;;;;;;2.25;1.05;;;9.30;99.90;;;;;;5096682;28;20235;-65
2021/05/25 00:06:33;;;;;;;4.00;0.90;;;9.30;99.90;;;;;;5078894;28;20222;-65
2021/05/25 00:09:00;;;;;;;2.15;1.30;;;9.30;99.90;;;;;;5096938;28;20286;-65
2021/05/25 00:11:27;;;;;;;2.15;0.98;;;9.30;99.90;;;;;;5096978;28;20562;-66
2021/05/25 00:13:53;;;;;;;3.60;0.90;;;9.30;99.90;;;;;;5096784;28;20202;-65
2021/05/25 00:16:20;;;;;;;1.15;0.82;;;9.30;99.90;;;;;;5061976;28;20208;-65
2021/05/25 00:18:47;;;;;;;1.58;0.88;;;9.30;99.90;;;;;;5096705;28;20207;-65
2021/05/25 00:21:14;;;;;;;2.40;1.00;;;9.30;99.90;;;;;;5096812;28;20200;-66
2021/05/25 00:23:40;;;;;;;1.45;0.80;;;9.30;99.90;;;;;;5096722;28;20318;-66
2021/05/25 00:26:07;;;;;;;1.17;1.08;;;9.30;99.90;;;;;;5078468;28;20207;-66
2021/05/25 00:28:33;;;;;;;2.35;0.90;;;9.30;99.90;;;;;;5078142;28;20203;-66
2021/05/25 00:30:59;;;;;;;2.15;0.95;;;9.40;99.90;;;;;;5096464;28;20195;-66
2021/05/25 00:33:26;;;;;;;1.55;0.95;;;9.50;99.90;;;;;;5096915;28;20207;-66
2021/05/25 00:35:54;;;;;;;1.45;1.35;;;9.50;99.90;;;;;;5096419;28;20278;-66
2021/05/25 00:38:20;;;;;;;1.65;1.08;;;9.60;99.90;;;;;;5078477;28;20281;-65
2021/05/25 00:40:47;;;;;;;4.07;1.10;;;9.60;99.90;;;;;;5096145;28;20320;-66
2021/05/25 00:43:13;;;;;;;1.25;1.13;;;9.60;99.90;;;;;;5096191;28;20280;-66
2021/05/25 00:45:40;;;;;;;1.80;0.95;;;9.50;99.90;;;;;;5096125;28;20187;-66
2021/05/25 00:48:06;;;;;;;3.35;1.27;;;9.50;99.90;;;;;;5096376;28;20559;-66
2021/05/25 00:50:33;;;;;;;2.80;1.00;;;9.50;99.90;;;;;;5095828;28;20223;-66
2021/05/25 00:53:02;;;;;;;3.00;1.08;;;9.50;99.90;;;;;;5095010;28;20176;-66
2021/05/25 00:55:36;;;;;;;2.20;1.38;;;9.50;99.90;;;;;;5095870;28;20203;-66
2021/05/25 00:58:05;;;;;;;1.20;0.93;;;9.50;99.90;;;;;;5095787;28;20646;-66
2021/05/25 01:00:43;;;;;;;2.65;0.98;;;9.50;99.90;;;;;;5096154;28;20204;-66
2021/05/25 01:03:11;;;;;;;1.25;0.90;;;9.40;99.90;;;;;;5094817;28;20206;-65
2021/05/25 01:05:38;;;;;;;1.10;1.00;;;9.40;99.90;;;;;;5095725;28;20557;-65
2021/05/25 01:08:05;;;;;;;3.40;1.00;;;9.30;99.90;;;;;;5095507;28;20556;-65
2021/05/25 01:10:35;;;;;;;2.45;0.80;;;9.30;99.90;;;;;;5095596;28;20205;-65
2021/05/25 01:13:12;;;;;;;1.10;1.00;;;9.30;99.90;;;;;;5077029;28;20203;-65
2021/05/25 01:15:39;;;;;;;6.60;1.08;;;9.30;99.90;;;;;;5095643;28;20175;-65
2021/05/25 01:18:07;;;;;;;4.13;1.35;;;9.30;99.90;;;;;;5095470;28;20211;-65
2021/05/25 01:20:36;;;;;;;2.33;1.02;;;9.30;99.90;;;;;;5094795;28;20206;-66
2021/05/25 01:23:04;;;;;;;1.38;0.93;;;9.20;99.90;;;;;;5095229;28;20203;-65
2021/05/25 01:25:31;;;;;;;1.10;1.00;;;9.10;99.90;;;;;;5095614;28;20643;-65
2021/05/25 01:27:59;;;;;;;0.85;0.80;;;9.10;99.90;;;;;;5095065;28;20195;-65
2021/05/25 01:30:28;;;;;;;1.90;0.98;;;9.20;99.90;;;;;;5095536;28;20192;-65
2021/05/25 01:32:55;;;;;;;1.98;0.95;;;9.10;99.90;;;;;;5094834;28;20677;-65
2021/05/25 01:35:23;;;;;;;2.40;1.10;;;9.10;99.90;;;;;;5095307;28;20209;-65
2021/05/25 01:37:51;;;;;;;2.85;0.77;;;9.10;99.90;;;;;;5077134;28;20207;-65
2021/05/25 01:40:18;;;;;;;1.60;0.98;;;9.10;99.90;;;;;;5095004;28;20211;-65
2021/05/25 01:42:44;;;;;;;4.20;1.42;;;9.10;99.90;;;;;;5095551;28;20650;-65
2021/05/25 01:45:21;;;;;;;1.88;0.90;;;9.00;99.90;;;;;;5076835;28;20231;-65
2021/05/25 01:47:48;;;;;;;2.10;1.00;;;9.00;99.90;;;;;;5076666;28;20210;-65
2021/05/25 01:50:16;;;;;;;0.80;0.80;;;9.00;99.90;;;;;;5095078;28;20206;-65
2021/05/25 01:52:55;;;;;;;1.15;1.00;;;9.00;99.90;;;;;;5095110;28;20172;-66
2021/05/25 01:55:34;;;;;;;2.13;0.88;;;9.10;99.90;;;;;;5094217;28;20282;-65
2021/05/25 01:58:15;;;;;;;1.67;0.77;;;9.10;99.90;;;;;;5094973;28;20539;-65
2021/05/25 02:00:50;;;;;;;6.63;1.50;;;9.10;99.90;;;;;;5094990;28;20168;-65
2021/05/25 02:03:16;;;;;;;1.48;0.90;;;9.10;99.90;;;;;;5094966;28;20187;-66
2021/05/25 02:05:43;;;;;;;1.98;1.13;;;9.00;99.90;;;;;;5094880;28;20276;-65
2021/05/25 02:08:09;;;;;;;2.88;1.00;;;9.00;99.90;;;;;;5094525;28;20183;-65
2021/05/25 02:10:40;;;;;;;5.07;1.15;;;9.00;99.90;;;;;;5094676;28;20193;-65
2021/05/25 02:13:15;;;;;;;2.58;1.40;;;9.00;99.90;;;;;;5094620;28;20657;-65
2021/05/25 02:15:43;;;;;;;1.55;0.90;;;9.00;99.90;;;;;;5093991;28;20277;-65
2021/05/25 02:18:10;;;;;;;2.65;1.20;;;8.90;99.90;;;;;;5094439;28;20677;-66
2021/05/25 02:20:38;;;;;;;3.00;0.90;;;8.90;99.90;;;;;;5094258;28;20278;-65
2021/05/25 02:23:04;;;;;;;2.17;1.85;;;8.90;99.90;;;;;;5093954;28;20195;-65
2021/05/25 02:25:31;;;;;;;1.40;1.05;;;8.90;99.90;;;;;;5093346;28;20217;-64
2021/05/25 02:27:58;;;;;;;1.48;1.05;;;8.90;99.90;;;;;;5093819;28;20199;-64
2021/05/25 02:30:25;;;;;;;2.10;1.20;;;9.00;99.90;;;;;;5093835;28;20218;-64
2021/05/25 02:32:51;;;;;;;3.00;1.70;;;9.00;99.90;;;;;;5093182;28;20208;-65
2021/05/25 02:35:17;;;;;;;2.38;0.90;;;9.00;99.90;;;;;;5093829;28;20226;-64
2021/05/25 02:37:44;;;;;;;2.55;1.10;;;9.10;99.90;;;;;;5093986;28;20194;-65
2021/05/25 02:40:11;;;;;;;1.05;0.95;;;9.10;99.90;;;;;;5094117;28;20215;-64
2021/05/25 02:42:37;;;;;;;1.45;0.90;;;9.10;99.90;;;;;;5093928;28;20191;-64
2021/05/25 02:45:06;;;;;;;0.95;0.70;;;9.20;99.90;;;;;;5093341;28;20725;-64
2021/05/25 02:47:33;;;;;;;2.92;1.10;;;9.30;99.90;;;;;;5093947;28;20199;-64
2021/05/25 02:50:06;;;;;;;1.95;1.00;;;9.20;99.90;;;;;;5093699;28;20195;-64
2021/05/25 02:52:38;;;;;;;1.10;0.90;;;9.30;99.90;;;;;;5093205;28;20233;-64
2021/05/25 02:55:06;;;;;;;2.70;1.00;;;9.30;99.90;;;;;;5093868;28;20175;-64
2021/05/25 02:57:32;;;;;;;2.17;0.80;;;9.40;99.90;;;;;;5093586;28;20188;-64
2021/05/25 02:59:59;;;;;;;1.40;1.20;;;9.40;99.90;;;;;;5093456;28;20673;-64
2021/05/25 03:02:26;;;;;;;3.08;0.90;;;9.40;99.90;;;;;;5093274;28;20274;-64
2021/05/25 03:04:53;;;;;;;1.45;0.90;;;9.40;99.90;;;;;;5092985;28;20245;-65
2021/05/25 03:07:20;;;;;;;3.67;1.10;;;9.50;99.90;;;;;;5092288;28;20206;-64
2021/05/25 03:09:46;;;;;;;3.25;1.20;;;9.50;99.90;;;;;;5092637;28;20791;-64
2021/05/25 03:12:13;;;;;;;0.82;0.82;;;9.50;99.90;;;;;;5092338;28;20221;-64
2021/05/25 03:14:39;;;;;;;1.58;0.98;;;9.50;99.90;;;;;;5092343;28;20215;-64
2021/05/25 03:17:05;;;;;;;3.10;1.45;;;9.50;99.90;;;;;;5092656;28;20191;-64
2021/05/25 03:19:32;;;;;;;2.45;0.90;;;9.50;99.90;;;;;;5092580;28;20199;-64
2021/05/25 03:21:58;;;;;;;2.40;1.15;;;9.60;99.90;;;;;;5093145;28;20196;-65
2021/05/25 03:24:24;;;;;;;3.17;1.27;;;9.60;99.90;;;;;;5093126;28;20229;-64
2021/05/25 03:26:51;;;;;;;1.73;0.93;;;9.70;99.90;;;;;;5093443;28;20556;-64
2021/05/25 03:29:17;;;;;;;1.08;0.98;;;9.70;99.90;;;;;;5093113;28;20198;-64
2021/05/25 03:31:44;;;;;;;1.17;0.70;;;9.70;99.90;;;;;;5093102;28;20199;-64
2021/05/25 03:34:10;;;;;;;1.95;0.90;;;9.60;99.90;;;;;;5092313;28;20290;-64
2021/05/25 03:36:37;;;;;;;2.15;1.30;;;9.60;99.90;;;;;;5093308;28;20207;-64
2021/05/25 03:39:04;;;;;;;1.23;0.75;;;9.60;99.90;;;;;;5093281;28;20274;-64
2021/05/25 03:41:32;;;;;;;2.13;0.85;;;9.60;99.90;;;;;;5092344;28;20223;-64
2021/05/25 03:44:00;;;;;;;1.65;1.00;;;9.60;99.90;;;;;;5092970;28;20227;-64
2021/05/25 03:46:27;;;;;;;1.20;0.88;;;9.60;99.90;;;;;;5074752;28;20678;-64
2021/05/25 03:48:54;;;;;;;1.30;1.15;;;9.60;99.90;;;;;;5092834;28;20203;-64
2021/05/25 03:51:20;;;;;;;1.67;1.10;;;9.60;99.90;;;;;;5074729;28;20583;-64
2021/05/25 03:53:47;;;;;;;3.25;1.02;;;9.60;99.90;;;;;;5092969;28;20195;-64
2021/05/25 03:58:50;;;;;;;1.17;1.08;;;9.60;99.90;;;;;;5092982;28;20191;-65
2021/05/25 04:01:22;;;;;;;1.50;0.80;;;9.60;99.90;;;;;;5092220;28;20203;-65
2021/05/25 04:03:53;;;;;;;1.63;1.00;;;9.60;99.90;;;;;;5092586;28;20207;-65
2021/05/25 04:06:20;;;;;;;5.25;1.02;;;9.60;99.90;;;;;;5092883;28;20184;-65
2021/05/25 04:08:47;;;;;;;2.35;1.00;;;9.60;99.90;;;;;;5092862;28;20199;-65
2021/05/25 04:11:14;;;;;;;1.05;0.95;;;9.60;99.90;;;;;;5092799;28;20195;-65
2021/05/25 04:13:41;;;;;;;1.42;1.10;;;9.60;99.90;;;;;;5092455;28;20210;-65
2021/05/25 04:16:14;;;;;;;4.20;1.10;;;9.60;99.90;;;;;;5093087;28;20206;-65
2021/05/25 04:18:44;;;;;;;3.88;1.10;;;9.60;99.90;;;;;;5092195;28;20218;-65
2021/05/25 04:21:11;;;;;;;4.20;1.80;;;9.60;99.90;;;;;;5092561;28;20225;-65
2021/05/25 04:23:38;;;;;;;1.05;0.85;;;9.60;99.90;;;;;;5092222;28;20643;-65
2021/05/25 04:26:04;;;;;;;4.97;1.02;;;9.60;99.90;;;;;;5092683;28;20207;-64
2021/05/25 04:28:31;;;;;;;1.83;0.85;;;9.60;99.90;;;;;;5094042;28;20211;-65
2021/05/25 04:30:58;;;;;;;3.58;0.90;;;9.60;99.90;;;;;;5077914;28;20211;-65
2021/05/25 04:33:24;;;;;;;1.00;0.80;;;9.60;99.90;;;;;;5096302;28;20203;-65
2021/05/25 04:35:50;;;;;;;1.30;0.80;;;9.70;99.90;;;;;;5096333;28;20237;-65
2021/05/25 04:38:17;;;;;;;3.50;0.80;;;9.70;99.90;;;;;;5095583;28;20286;-65
2021/05/25 04:40:45;;;;;;;2.03;1.05;;;9.70;99.90;;;;;;5095983;28;20223;-65
2021/05/25 04:43:12;;;;;;;2.25;0.95;;;9.70;99.90;;;;;;5095602;28;20213;-65
2021/05/25 04:45:39;;;;;;;3.13;1.15;;;9.70;99.90;;;;;;5095707;28;20302;-65
2021/05/25 04:48:06;;;;;;;2.13;1.38;;;9.80;99.90;;;;;;5077562;28;20209;-65
2021/05/25 04:50:34;;;;;;;5.50;1.23;;;9.70;99.90;;;;;;5095310;28;20231;-65
2021/05/25 04:53:00;;;;;;;1.38;0.98;;;9.80;99.90;;;;;;5095867;28;20224;-65
2021/05/25 04:55:27;;;;;;;1.40;0.90;;;9.80;99.90;;;;;;5095661;28;20207;-65
2021/05/25 04:57:53;;;;;;;0.90;0.73;;;9.80;99.90;;;;;;5097052;28;20187;-65
2021/05/25 05:00:23;;;;;;;1.83;1.10;;;9.80;99.90;;;;;;5095706;28;20187;-65
2021/05/25 05:02:49;;;;;;;1.00;0.90;;;9.80;99.90;;;;;;5096017;28;20199;-65
2021/05/25 05:05:16;;;;;;;1.90;0.98;;;9.90;99.90;;;;;;5096024;28;20207;-65
2021/05/25 05:07:43;;;;;;;4.07;1.23;;;9.90;99.90;;;;;;5095644;28;20203;-65
2021/05/25 05:10:11;;;;;;;1.10;0.95;;;9.90;99.90;;;;;;5096017;28;20215;-65
2021/05/25 05:12:37;;;;;;;2.40;1.77;;;9.90;99.90;;;;;;5095802;28;20233;-65
2021/05/25 05:15:05;;;;;;;2.85;0.90;;;9.90;99.90;;;;;;5086578;28;20196;-65
2021/05/25 05:17:32;;;;;;;3.17;2.20;;;10.00;99.90;;;;;;5089827;28;20665;-65
2021/05/25 05:19:58;;;;;;;2.00;1.80;;;10.00;99.90;;;;;;5095619;28;20198;-65
2021/05/25 05:22:25;;;;;;;4.32;1.10;;;10.00;99.90;;;;;;5095568;28;20187;-65
2021/05/25 05:24:51;;;;;;;1.63;1.10;;;10.10;99.90;;;;;;5095584;28;20211;-65
2021/05/25 05:27:18;;;;;;;2.30;0.90;;;10.10;99.90;;;;;;5095360;28;20222;-66
2021/05/25 05:29:45;;;;;;;4.65;0.95;;;10.10;99.90;;;;;;5095387;28;20607;-65
2021/05/25 05:32:11;;;;;;;2.15;1.00;;;10.10;99.90;;;;;;5094524;28;20282;-65
2021/05/25 05:34:38;;;;;;;2.15;0.85;;;10.10;99.90;;;;;;5094967;28;20199;-66
2021/05/25 05:37:04;;;;;;;3.13;0.88;;;10.10;99.90;;;;;;5094346;28;20199;-65
2021/05/25 05:39:31;;;;;;;3.05;1.00;;;10.10;99.90;;;;;;5094848;28;20187;-65
2021/05/25 05:41:57;;;;;;;1.02;0.90;;;10.20;99.90;;;;;;5094882;28;20253;-65
2021/05/25 05:44:23;;;;;;;1.23;0.90;;;10.20;99.90;;;;;;5094937;28;20208;-65
2021/05/25 05:46:50;;;;;;;1.20;1.00;;;10.30;99.90;;;;;;5094917;28;20191;-65
2021/05/25 05:49:16;;;;;;;1.05;0.80;;;10.30;99.90;;;;;;5094934;28;20542;-65
2021/05/25 05:51:43;;;;;;;1.38;0.90;;;10.30;99.90;;;;;;5094161;28;20223;-65
2021/05/25 05:54:11;;;;;;;4.40;1.20;;;10.20;99.90;;;;;;5094833;28;20198;-65
2021/05/25 05:56:37;;;;;;;2.88;1.55;;;10.30;99.90;;;;;;5094762;28;20549;-65
2021/05/25 05:59:04;;;;;;;2.08;1.30;;;10.30;99.90;;;;;;5094667;28;20222;-65
2021/05/25 06:01:30;;;;;;;3.25;0.98;;;10.30;99.90;;;;;;5094762;28;20213;-65
2021/05/25 06:03:57;;;;;;;1.75;0.80;;;10.30;99.90;;;;;;5094734;28;20199;-65
2021/05/25 06:06:23;;;;;;;3.38;1.20;;;10.10;99.90;;;;;;5059803;28;20199;-65
2021/05/25 06:08:49;;;;;;;1.00;0.90;;;9.90;99.90;;;;;;5094365;28;20309;-65
2021/05/25 06:11:16;;;;;;;5.65;1.40;;;9.70;99.90;;;;;;5094701;28;20245;-65
2021/05/25 06:13:43;;;;;;;0.70;0.70;;;9.70;99.90;;;;;;5093881;28;20191;-65
2021/05/25 06:16:10;;;;;;;12.43;1.30;;;9.70;99.90;;;;;;5094191;28;20650;-65
2021/05/25 06:18:37;;;;;;;2.40;1.33;;;9.60;99.90;;;;;;5094337;28;20199;-65
2021/05/25 06:21:04;;;;;;;2.53;1.17;;;9.60;99.90;;;;;;5091220;28;20199;-65
2021/05/25 06:23:32;;;;;;;1.55;1.15;;;9.60;99.90;;;;;;5093979;28;20211;-65
2021/05/25 06:26:00;;;;;;;2.97;1.30;;;9.60;99.90;;;;;;5093926;28;20211;-65
2021/05/25 06:28:28;;;;;;;3.97;1.40;;;9.70;99.90;;;;;;5093850;28;20195;-65
2021/05/25 06:30:54;;;;;;;3.90;1.45;;;9.70;99.90;;;;;;5093650;28;20210;-65
2021/05/25 06:33:21;;;;;;;1.52;1.20;;;9.70;99.90;;;;;;5093815;28;20210;-65
2021/05/25 06:35:49;;;;;;;1.67;1.00;;;9.90;99.90;;;;;;5093936;28;20211;-65
2021/05/25 06:38:16;;;;;;;2.65;1.10;;;9.90;99.90;;;;;;5093707;28;20635;-67
2021/05/25 06:40:43;;;;;;;2.35;1.35;;;10.00;99.90;;;;;;5093554;28;20231;-65
2021/05/25 06:43:10;;;;;;;2.53;0.98;;;10.00;99.90;;;;;;5093427;28;20187;-65
2021/05/25 06:45:37;;;;;;;3.15;1.35;;;10.00;99.90;;;;;;5093373;28;20640;-66
2021/05/25 06:48:04;;;;;;;6.78;1.80;;;9.90;99.90;;;;;;5093556;28;20207;-66
2021/05/25 06:50:31;;;;;;;1.20;0.95;;;9.90;99.90;;;;;;5092727;28;20596;-65
2021/05/25 06:52:58;;;;;;;2.15;1.77;;;9.70;99.90;;;;;;5075077;28;20663;-65
2021/05/25 06:55:24;;;;;;;2.63;1.30;;;9.70;99.90;;;;;;5075550;28;20207;-65
2021/05/25 06:57:50;;;;;;;3.00;1.20;;;9.70;99.90;;;;;;5093649;28;20643;-66
2021/05/25 07:00:18;;;;;;;1.80;1.13;;;9.70;99.90;;;;;;5093627;28;20211;-65
2021/05/25 07:02:44;;;;;;;2.78;1.02;;;9.80;99.90;;;;;;5075741;28;20187;-65
2021/05/25 07:05:11;;;;;;;3.03;1.45;;;9.80;99.90;;;;;;5093656;28;20685;-66
2021/05/25 07:07:37;;;;;;;2.03;1.30;;;9.80;99.90;;;;;;5093210;28;20225;-65
2021/05/25 07:10:05;;;;;;;4.32;1.30;;;9.80;99.90;;;;;;5093279;28;20294;-65
2021/05/25 07:12:32;;;;;;;2.65;1.50;;;9.80;99.90;;;;;;5093617;28;20198;-65
2021/05/25 07:14:58;;;;;;;3.10;1.23;;;9.70;99.90;;;;;;5093728;28;20642;-65
2021/05/25 07:17:25;;;;;;;4.18;1.35;;;9.70;99.90;;;;;;5075051;28;20282;-65
2021/05/25 07:19:51;;;;;;;5.95;1.00;;;9.90;99.90;;;;;;5093691;28;20654;-65
2021/05/25 07:22:18;;;;;;;3.45;1.10;;;9.90;99.90;;;;;;5093693;28;20218;-65
2021/05/25 07:24:46;;;;;;;1.45;1.20;;;9.80;99.90;;;;;;5092718;28;20219;-65
2021/05/25 07:27:13;;;;;;;2.50;1.10;;;9.70;99.90;;;;;;5092645;28;20195;-65
2021/05/25 07:29:39;;;;;;;1.45;0.95;;;9.90;99.90;;;;;;5093302;28;20195;-65
2021/05/25 07:32:06;;;;;;;4.53;1.50;;;10.30;99.90;;;;;;5092861;28;20289;-65
2021/05/25 07:34:33;;;;;;;5.60;1.42;;;10.40;99.90;;;;;;5092882;28;20556;-65
2021/05/25 07:37:00;;;;;;;2.00;0.98;;;10.30;99.90;;;;;;5092829;28;20207;-65
2021/05/25 07:39:26;;;;;;;1.55;1.45;;;10.30;99.90;;;;;;5093530;28;20635;-65
2021/05/25 07:41:52;;;;;;;3.83;1.10;;;10.20;99.90;;;;;;5092882;28;20219;-65
2021/05/25 07:44:19;;;;;;;1.98;1.38;;;10.10;99.90;;;;;;5093269;28;20199;-65
2021/05/25 07:46:46;;;;;;;4.13;1.17;;;10.00;99.90;;;;;;5093167;28;20191;-65
2021/05/25 07:49:12;;;;;;;4.82;1.40;;;10.00;99.90;;;;;;5092982;28;20197;-66
2021/05/25 07:51:38;;;;;;;1.60;1.00;;;9.90;99.90;;;;;;5091939;28;20235;-65
2021/05/25 07:54:05;;;;;;;1.60;1.00;;;9.80;99.90;;;;;;5092980;28;20274;-65
2021/05/25 07:56:31;;;;;;;1.00;0.77;;;9.80;99.90;;;;;;5092668;28;20199;-65
2021/05/25 07:58:58;;;;;;;1.75;1.00;;;9.70;99.90;;;;;;5092614;28;20188;-65
2021/05/25 08:01:24;;;;;;;1.40;1.30;;;9.70;99.90;;;;;;5092206;28;20211;-65
2021/05/25 08:03:50;;;;;;;2.15;1.30;;;9.60;99.90;;;;;;5095858;28;20549;-65
2021/05/25 08:06:17;;;;;;;2.15;1.60;;;9.60;99.90;;;;;;5096512;28;20233;-65
2021/05/25 08:08:43;;;;;;;2.05;1.10;;;9.70;99.90;;;;;;5096488;28;20190;-65
2021/05/25 08:11:13;;;;;;;2.88;1.00;;;9.60;99.90;;;;;;5089398;28;20205;-65
2021/05/25 08:13:44;;;;;;;1.40;0.98;;;9.60;99.90;;;;;;5082735;28;20271;-65
2021/05/25 08:16:14;;;;;;;1.40;1.20;;;9.70;99.90;;;;;;5082010;28;20212;-65
2021/05/25 08:19:07;;;;;;;8.27;1.48;;;9.60;99.90;;;;;;5082228;28;20214;-65
2021/05/25 08:21:36;;;;;;;4.63;1.67;;;9.50;99.90;;;;;;5087076;28;20543;-65
2021/05/25 08:24:02;;;;;;;3.13;1.50;;;9.30;99.90;;;;;;5096384;28;20200;-65
2021/05/25 08:26:29;;;;;;;4.70;1.55;;;9.20;99.90;;;;;;5096239;28;20230;-64
2021/05/25 08:28:55;;;;;;;4.85;1.30;;;9.30;99.90;;;;;;5096684;28;20209;-64
2021/05/25 08:31:22;;;;;;;5.13;1.70;;;9.30;99.90;;;;;;5096647;28;20573;-64
2021/05/25 08:33:48;;;;;;;3.35;1.45;;;9.40;99.90;;;;;;5096614;28;20199;-65
2021/05/25 08:36:16;;;;;;;3.60;1.60;;;9.40;99.90;;;;;;5096165;28;20553;-65
2021/05/25 08:38:44;;;;;;;2.08;1.15;;;9.40;99.90;;;;;;5096286;28;20196;-65
2021/05/25 08:41:11;;;;;;;2.75;1.20;;;9.50;99.90;;;;;;5096206;28;20579;-65
2021/05/25 08:43:38;;;;;;;1.27;1.17;;;9.70;99.90;;;;;;5095677;28;20203;-65
2021/05/25 08:46:05;;;;;;;4.93;1.27;;;9.80;99.90;;;;;;5095963;28;20686;-65
2021/05/25 08:48:32;;;;;;;3.83;1.27;;;10.10;99.90;;;;;;5095829;28;20203;-64
2021/05/25 08:51:00;;;;;;;1.50;1.30;;;10.30;99.90;;;;;;5096015;28;20227;-66
2021/05/25 08:53:28;;;;;;;5.15;2.08;;;10.30;99.90;;;;;;5096275;28;20188;-66
2021/05/25 08:55:55;;;;;;;2.95;1.10;;;10.60;99.90;;;;;;5096439;28;20222;-64
2021/05/25 08:58:23;;;;;;;1.55;1.00;;;10.90;99.90;;;;;;5095613;28;20221;-65
2021/05/25 09:00:52;;;;;;;1.55;1.35;;;11.00;99.90;;;;;;5095785;28;20210;-65
2021/05/25 09:03:20;;;;;;;3.28;1.48;;;10.90;99.90;;;;;;5095293;28;20208;-65
2021/05/25 09:05:56;;;;;;;1.60;1.42;;;10.60;99.90;;;;;;5095638;28;20226;-64
2021/05/25 09:08:23;;;;;;;3.25;1.48;;;10.90;99.90;;;;;;5095566;28;20181;-63
2021/05/25 09:10:51;;;;;;;3.42;1.50;;;11.00;99.90;;;;;;5095475;28;20206;-66
2021/05/25 09:13:23;;;;;;;2.90;1.40;;;11.00;99.90;;;;;;5094259;28;20211;-65
2021/05/25 09:15:51;;;;;;;4.70;1.20;;;11.00;99.90;;;;;;5082114;28;20217;-64
2021/05/25 09:18:23;;;;;;;6.70;1.50;;;11.30;99.90;;;;;;5095827;28;20205;-64
2021/05/25 09:20:53;;;;;;;4.35;1.75;;;11.40;99.90;;;;;;5081062;28;20195;-65
2021/05/25 09:23:43;;;;;;;2.58;1.08;;;11.90;99.90;;;;;;5094645;28;20203;-65
2021/05/25 09:26:18;;;;;;;3.03;1.38;;;12.30;99.90;;;;;;5075168;28;20285;-65
2021/05/25 09:29:04;;;;;;;2.85;1.20;;;12.10;99.90;;;;;;5090416;28;20191;-65
2021/05/25 09:31:38;;;;;;;4.03;1.95;;;12.20;99.90;;;;;;5094896;28;20200;-65
2021/05/25 09:34:15;;;;;;;3.00;1.25;;;12.10;99.90;;;;;;5095226;28;20539;-65
2021/05/25 09:36:56;;;;;;;2.45;1.35;;;11.90;99.90;;;;;;5095045;28;20197;-65
2021/05/25 09:39:43;;;;;;;1.40;1.02;;;11.70;99.90;;;;;;5089767;28;20644;-65
2021/05/25 09:42:14;;;;;;;8.20;2.05;;;11.70;99.90;;;;;;5074352;28;20214;-65
2021/05/25 09:45:04;;;;;;;2.92;1.45;;;11.80;99.90;;;;;;5080312;28;20208;-65
2021/05/25 09:47:41;;;;;;;4.50;1.50;;;11.70;99.90;;;;;;5095329;28;20189;-65
2021/05/25 09:50:12;;;;;;;2.45;1.25;;;11.50;99.90;;;;;;5094717;28;20201;-65
2021/05/25 09:53:05;;;;;;;2.05;1.15;;;11.60;99.90;;;;;;5094739;28;20269;-65
2021/05/25 09:55:46;;;;;;;8.00;1.55;;;11.60;99.90;;;;;;5073601;28;20540;-66
2021/05/25 09:58:12;;;;;;;3.20;1.50;;;11.50;99.90;;;;;;5079727;28;20287;-66
2021/05/25 10:00:40;;;;;;;1.30;1.20;;;11.20;99.90;;;;;;5094561;28;20195;-65
2021/05/25 10:03:14;;;;;;;6.13;1.40;;;11.20;99.90;;;;;;5094460;28;20203;-65
2021/05/25 10:05:46;;;;;;;3.53;1.60;;;11.10;99.90;;;;;;5094214;28;20227;-65
2021/05/25 10:08:13;;;;;;;5.35;1.77;;;11.20;99.90;;;;;;5094920;28;20183;-64
2021/05/25 10:10:40;;;;;;;1.58;1.20;;;11.30;99.90;;;;;;5094491;28;20225;-65
2021/05/25 10:13:08;;;;;;;1.65;1.30;;;11.40;99.90;;;;;;5094602;28;20195;-65
2021/05/25 10:15:35;;;;;;;2.60;1.70;;;11.40;99.90;;;;;;5094211;28;20210;-65
2021/05/25 10:20:31;;;;;;;2.60;1.30;;;11.40;99.90;;;;;;5094571;28;20213;-65
2021/05/25 10:22:57;;;;;;;5.57;1.70;;;11.40;99.90;;;;;;5094476;28;20198;-66
2021/05/25 10:25:26;;;;;;;2.75;1.20;;;11.50;99.90;;;;;;5093696;28;20250;-65
2021/05/25 10:27:53;;;;;;;1.17;1.00;;;11.70;99.90;;;;;;5094291;28;20208;-64
2021/05/25 10:30:25;;;;;;;4.88;1.42;;;12.00;99.90;;;;;;5094581;28;20274;-64
2021/05/25 10:33:12;;;;;;;3.97;1.60;;;11.80;99.90;;;;;;5094641;28;20191;-66
2021/05/25 10:35:56;;;;;;;1.63;1.38;;;11.80;99.90;;;;;;5094717;28;20226;-66
2021/05/25 10:38:34;;;;;;;5.32;2.50;;;12.00;99.90;;;;;;5094069;28;20203;-65
2021/05/25 10:41:05;;;;;;;2.72;1.63;;;12.30;99.90;;;;;;5094236;28;20222;-66
2021/05/25 10:43:38;;;;;;;5.75;1.88;;;12.90;99.90;;;;;;5094022;28;20207;-66
2021/05/25 10:46:14;;;;;;;2.33;1.30;;;12.60;99.90;;;;;;5093704;28;20249;-65
2021/05/25 10:51:51;;;;;;;2.65;1.50;;;13.60;99.90;;;;;;5093917;28;20227;-65
2021/05/25 10:54:55;;;;;;;3.87;1.30;;;13.80;99.90;;;;;;5094267;28;20271;-66
2021/05/25 10:57:30;;;;;;;3.47;1.67;;;13.50;99.90;;;;;;5073106;28;20588;-66
2021/05/25 11:00:07;;;;;;;3.22;1.52;;;13.80;99.90;;;;;;5093851;28;20197;-66
2021/05/25 11:02:45;;;;;;;2.55;1.15;;;13.60;99.90;;;;;;5094121;28;20619;-66
2021/05/25 11:05:27;;;;;;;3.17;1.20;;;13.70;99.90;;;;;;5075840;28;20282;-66
2021/05/25 11:08:12;;;;;;;7.15;1.33;;;13.50;99.90;;;;;;5093701;28;20202;-66
2021/05/25 11:10:39;;;;;;;6.50;1.52;;;13.70;99.90;;;;;;5093741;28;20185;-65
2021/05/25 11:13:14;;;;;;;2.28;1.52;;;13.80;99.90;;;;;;5094286;28;20195;-66
2021/05/25 11:16:20;;;;;;;3.17;1.30;;;13.70;99.90;;;;;;5093846;28;20190;-65
2021/05/25 11:24:27;;;;;;;5.30;1.57;;;13.90;99.90;;;;;;5093579;28;20176;-65
2021/05/25 11:26:59;;;;;;;2.40;1.40;;;14.50;99.90;;;;;;5093269;28;20644;-66
2021/05/25 11:29:30;;;;;;;2.77;1.03;;;;;;;;;;5093237;28;20613;-66
2021/05/25 11:32:00;;;;;;;4.40;1.20;;;14.60;99.90;;;;;;5093212;28;20686;-65
2021/05/25 11:34:27;;;;;;;1.90;0.90;;;14.70;99.90;;;;;;5093917;28;20607;-65
2021/05/25 11:37:08;;;;;;;3.07;1.53;;;15.10;99.90;;;;;;5093681;28;20624;-65
2021/05/25 11:39:36;;;;;;;2.20;1.10;;;15.30;99.90;;;;;;5097575;28;20568;-65
2021/05/25 11:42:06;;;;;;;1.47;1.17;;;15.40;99.90;;;;;;5097550;28;21069;-65
2021/05/25 11:44:42;;;;;;;2.50;1.30;;;15.30;99.90;;;;;;5097213;28;20625;-65
2021/05/25 11:47:09;;;;;;;3.03;1.40;;;14.60;99.90;;;;;;5096716;28;20652;-65
2021/05/25 11:49:40;;;;;;;3.37;1.73;;;14.10;99.90;;;;;;5097304;28;21111;-65
2021/05/25 11:52:22;;;;;;;7.20;1.70;;;13.80;99.90;;;;;;5097230;28;20616;-65
2021/05/25 11:54:50;;;;;;;4.70;1.40;;;13.50;99.90;;;;;;5097110;28;20906;-65
2021/05/25 11:57:40;;;;;;;3.93;1.60;;;13.30;99.90;;;;;;5096474;28;20631;-65
2021/05/25 12:00:11;;;;;;;2.83;1.10;;;14.50;99.90;;;;;;5097426;28;20677;-65
2021/05/25 12:02:39;;;;;;;2.63;1.33;;;15.10;99.90;;;;;;5096455;28;21166;-65
2021/05/25 12:05:13;;;;;;;1.47;1.20;;;15.30;99.90;;;;;;5097070;28;20600;-66
2021/05/25 12:07:42;;;;;;;14.63;1.60;;;15.30;99.90;;;;;;5096564;28;20587;-66
2021/05/25 12:10:17;;;;;;;2.40;1.47;;;15.20;99.90;;;;;;5096817;28;20625;-64
2021/05/25 12:12:45;;;;;;;7.60;1.40;;;14.70;99.90;;;;;;5096617;28;20627;-64
2021/05/25 12:15:19;;;;;;;2.03;1.50;;;14.50;99.90;;;;;;5096687;28;20629;-65
2021/05/25 12:17:52;;;;;;;6.20;2.07;;;14.30;99.90;;;;;;5096257;28;20630;-64
2021/05/25 12:20:20;;;;;;;2.30;1.20;;;14.30;99.90;;;;;;5097142;28;20563;-64
2021/05/25 12:22:52;;;;;;;1.73;1.00;;;14.60;99.90;;;;;;5096694;28;20955;-65
2021/05/25 12:25:21;;;;;;;1.03;1.00;;;14.60;99.90;;;;;;5096691;28;20572;-65
2021/05/25 12:28:04;;;;;;;5.77;1.33;;;15.40;99.90;;;;;;5096618;28;20589;-65
2021/05/25 12:30:31;;;;;;;3.67;1.13;;;15.40;99.90;;;;;;5096111;28;20621;-64
2021/05/25 12:32:58;;;;;;;2.03;1.00;;;15.70;99.90;;;;;;5096642;28;20601;-65
2021/05/25 12:35:26;;;;;;;2.87;1.30;;;15.90;99.90;;;;;;5096469;28;20627;-65
2021/05/25 12:38:09;;;;;;;2.10;1.20;;;15.70;99.90;;;;;;5096140;28;20624;-65
2021/05/25 12:40:37;;;;;;;2.80;1.33;;;15.00;99.90;;;;;;5096346;28;20617;-65
2021/05/25 12:43:22;;;;;;;3.00;1.60;;;14.90;99.90;;;;;;5096306;28;20578;-65
2021/05/25 12:45:50;;;;;;;2.20;1.10;;;15.20;99.90;;;;;;5096016;28;20600;-65
2021/05/25 12:48:18;;;;;;;2.43;1.30;;;15.90;99.90;;;;;;5095597;28;20575;-64
2021/05/25 12:50:46;;;;;;;1.63;1.00;;;16.50;99.90;;;;;;5095524;28;20711;-65
2021/05/25 12:53:19;;;;;;;1.20;1.10;;;16.80;99.90;;;;;;5097192;28;20536;-65
2021/05/25 12:55:51;;;;;;;2.27;1.10;;;15.80;99.90;;;;;;5096527;28;20649;-64
2021/05/25 12:58:43;;;;;;;2.60;1.67;;;15.60;99.90;;;;;;5096120;28;20572;-64
2021/05/25 13:01:26;;;;;;;1.27;0.80;;;15.70;99.90;;;;;;5096364;28;20536;-66
2021/05/25 13:04:16;;;;;;;1.20;1.10;;;15.60;99.90;;;;;;5097253;28;20581;-66
2021/05/25 13:07:05;;;;;;;1.00;0.90;;;15.70;99.90;;;;;;5095973;28;20649;-65
2021/05/25 13:09:41;;;;;;;7.13;1.20;;;15.20;99.90;;;;;;5096088;28;20572;-65
2021/05/25 13:12:12;;;;;;;4.70;1.43;;;15.50;99.90;;;;;;5095856;28;20566;-65
2021/05/25 13:14:39;;;;;;;1.77;1.37;;;15.50;99.90;;;;;;5095898;28;20560;-65
2021/05/25 13:17:14;;;;;;;5.50;1.20;;;15.40;99.90;;;;;;5095225;28;21140;-66
2021/05/25 13:19:49;;;;;;;1.73;1.33;;;15.10;99.90;;;;;;5095922;28;20611;-65